Hlavní strana
METAR-TAF:

METAR-TAF

Letiště :

Paganella, Itálie

zeměpisná šířka: 46-09N, zeměpisná délka: 011-02E, výška: 2125 m

Aktuální stav počasí

Zpráva byla vytvořena před 1 hodinou a 5 minutami, v 16:55 UTC
Severoseverozápadní vítr 5 kt
Teplota -3°C
Vlhkost vzduchu 58%
Tlak 1018 hPa
Viditelnost 10 km a více
Žádná oblačnost pod 1500 m, nevyskytují se cumulonimby.

METAR: LIVP 171655Z 34005KT CAVOK M03/M10 Q1018 RMK SKC MON NIL VAL NIL VIS MIN 9999

Čas: 19:00 (18:00 UTC)


TAF: chybějící

Stav a předpovědi počasí z více než 4 000 letišť (zprávy METAR a TAF).

Červené a žluté tečky na mapě představují dostupné meteorologické stanice.

Když kurzor umístíte na tečku, zobrazí se název stanice.

Pak kliknutím zobrazíte stav a předpověď počasí.

Chcete-li změnit mapu, kliknutím na zelené tlačítko se znaménkem +mapu přiblížíte, kliknutím na zelené tlačítko se znaménkem – mapu oddálíte a kliknutím na zelené šipky přejdete na sousední mapy.


METAR-TAF: